Main page
METAR-TAF:

METAR-TAF

Airports :

Kuressaare Airport

Kuressaare, Estonia

latitude: 58-13-48N, longitude: 022-30-34E, elevation: 4 m

Current weather observation

The report was made 32 minutes ago, at 09:20 UTC
Wind 8 kt from the Southwest, varying between South and West
Temperature 19°C
Humidity 88%
Pressure 1015 hPa
Visibility 10 km or more
Broken clouds at a height of 1000 ft

METAR: EEKE 120920Z 22008KT 180V260 9999 BKN010 19/17 Q1015

Time: 12:52 (09:52 UTC)

Forecast

The report was made 6 hours and 52 minutes ago, at 03:00 UTC
Forecast valid from 12 at 04 UTC to 12 at 10 UTC
Wind 10 kt from the West
Visibility: 8000 m
Overcast at a height of 400 ft
Temporary
from 12 at 04 UTC to 12 at 07 UTC
Visibility: 1200 m
Overcast at a height of 200 ft
mist
Becoming
from 12 at 07 UTC to 12 at 08 UTC
Scattered clouds at a height of 800 ft
Broken clouds at a height of 1500 ft

TAF: EEKE 120300Z 1204/1210 27010KT 8000 OVC004 TEMPO 1204/1207 1200 BR OVC002 BECMG 1207/1208 SCT008 BKN015

Weather observations and forecasts of more than 4000 airports (METAR and TAF reports).

The available stations are represented by yellow and red dots on the map.

Hover mouse over dot to see the name of the station.

Then click to see weather observations and forecasts.

To change the map : click on the green buttons with a black cross to zoom in, on the green button with a dash to zoom out, or on the green arrows for adjacent maps.


METAR-TAF: